Time;durP1;ratioP1;P1;durP2;ratioP2;P2;SDS_P1;SDS_P2;PMS_P1;PMS_P2;Temp;Humidity;BMP_temperature;BMP_pressure;BME280_temperature;BME280_humidity;BME280_pressure;Samples;Min_cycle;Max_cycle;Signal;HPM_P1;HPM_P2
2024/03/10 00:00:20;;;;;;;;;;;22.80;36.50;;;;;;5053338;28;19931;-62
2024/03/10 00:02:48;;;;;;;;;;;22.80;36.50;;;;;;5053386;28;19931;-62
2024/03/10 00:05:15;;;;;;;;;;;22.70;36.50;;;;;;5053228;28;20359;-62
2024/03/10 00:07:43;;;;;;;;;;;22.70;36.50;;;;;;5053119;28;19995;-62
2024/03/10 00:10:12;;;;;;;;;;;22.80;36.50;;;;;;5053268;28;19932;-62
2024/03/10 00:12:39;;;;;;;;;;;22.70;36.50;;;;;;5052991;28;20147;-62
2024/03/10 00:15:06;;;;;;;;;;;22.70;36.50;;;;;;5053189;28;20019;-62
2024/03/10 00:17:35;;;;;;;;;;;22.70;36.50;;;;;;5053145;28;20019;-62
2024/03/10 00:20:03;;;;;;;;;;;22.70;36.50;;;;;;5052814;28;19932;-63
2024/03/10 00:22:30;;;;;;;;;;;22.70;36.50;;;;;;5051945;28;19932;-62
2024/03/10 00:24:57;;;;;;;;;;;22.70;36.60;;;;;;5052829;28;20020;-62
2024/03/10 00:27:24;;;;;;;;;;;22.70;36.60;;;;;;5052494;28;20366;-62
2024/03/10 00:29:51;;;;;;;;;;;22.70;36.60;;;;;;5052872;28;20375;-62
2024/03/10 00:32:18;;;;;;;;;;;22.70;36.60;;;;;;5052861;28;20047;-62
2024/03/10 00:34:45;;;;;;;;;;;22.70;36.70;;;;;;5035459;28;19928;-62
2024/03/10 00:37:12;;;;;;;;;;;22.70;36.70;;;;;;5052931;28;19975;-63
2024/03/10 00:39:39;;;;;;;;;;;22.70;36.70;;;;;;5052669;28;19924;-61
2024/03/10 00:42:06;;;;;;;;;;;22.70;36.70;;;;;;5056365;28;20007;-63
2024/03/10 00:44:33;;;;;;;;;;;22.70;36.70;;;;;;5056181;28;19925;-62
2024/03/10 00:47:00;;;;;;;;;;;22.70;36.60;;;;;;5054943;28;20417;-62
2024/03/10 00:49:27;;;;;;;;;;;22.70;36.60;;;;;;5056280;28;19925;-62
2024/03/10 00:51:54;;;;;;;;;;;22.70;36.60;;;;;;5056219;28;19925;-62
2024/03/10 00:54:21;;;;;;;;;;;22.70;36.70;;;;;;5056074;28;20007;-62
2024/03/10 00:56:48;;;;;;;;;;;22.70;36.60;;;;;;5055115;28;20023;-63
2024/03/10 00:59:16;;;;;;;;;;;22.70;36.70;;;;;;5056457;28;19960;-64
2024/03/10 01:01:43;;;;;;;;;;;22.70;36.70;;;;;;5056061;28;19947;-63
2024/03/10 01:04:10;;;;;;;;;;;22.70;36.70;;;;;;5056267;28;19925;-62
2024/03/10 01:06:37;;;;;;;;;;;22.70;36.70;;;;;;5055703;28;19929;-62
2024/03/10 01:09:08;;;;;;;;;;;22.70;36.60;;;;;;5055891;28;19928;-62
2024/03/10 01:11:37;;;;;;;;;;;22.70;36.60;;;;;;5055818;28;19928;-62
2024/03/10 01:14:05;;;;;;;;;;;22.70;36.60;;;;;;5055892;28;20018;-62
2024/03/10 01:16:32;;;;;;;;;;;22.70;36.70;;;;;;5055783;28;19925;-62
2024/03/10 01:18:59;;;;;;;;;;;22.70;36.70;;;;;;5055666;28;20007;-63
2024/03/10 01:21:26;;;;;;;;;;;22.70;36.70;;;;;;5056064;28;20365;-62
2024/03/10 01:23:53;;;;;;;;;;;22.70;36.70;;;;;;5056160;28;20334;-62
2024/03/10 01:26:20;;;;;;;;;;;22.70;36.70;;;;;;5055565;28;19982;-62
2024/03/10 01:28:47;;;;;;;;;;;22.70;36.70;;;;;;5055809;28;19924;-62
2024/03/10 01:31:14;;;;;;;;;;;22.70;36.70;;;;;;5055807;28;20020;-62
2024/03/10 01:33:41;;;;;;;;;;;22.70;36.70;;;;;;5055368;28;20335;-62
2024/03/10 01:36:09;;;;;;;;;;;22.70;36.80;;;;;;5055708;28;19960;-62
2024/03/10 01:38:37;;;;;;;;;;;22.70;36.80;;;;;;5055257;28;20344;-62
2024/03/10 01:41:04;;;;;;;;;;;22.70;36.80;;;;;;5055646;28;20012;-62
2024/03/10 01:43:31;;;;;;;;;;;22.70;36.90;;;;;;5055448;28;19936;-62
2024/03/10 01:46:01;;;;;;;;;;;22.60;36.80;;;;;;5055108;28;19925;-63
2024/03/10 01:48:29;;;;;;;;;;;22.70;36.90;;;;;;5055663;28;20306;-62
2024/03/10 01:50:57;;;;;;;;;;;22.60;36.90;;;;;;5054055;28;19964;-62
2024/03/10 01:53:24;;;;;;;;;;;22.70;36.90;;;;;;5054503;28;19932;-62
2024/03/10 01:55:52;;;;;;;;;;;22.70;36.90;;;;;;5055280;28;19971;-62
2024/03/10 01:58:19;;;;;;;;;;;22.70;36.90;;;;;;5037019;28;20011;-62
2024/03/10 02:00:47;;;;;;;;;;;22.70;36.90;;;;;;5055216;28;19968;-62
2024/03/10 02:03:15;;;;;;;;;;;22.70;36.90;;;;;;5054803;28;20391;-62
2024/03/10 02:05:46;;;;;;;;;;;22.70;36.90;;;;;;5054868;28;20408;-62
2024/03/10 02:08:15;;;;;;;;;;;22.70;36.90;;;;;;5054844;28;19972;-62
2024/03/10 02:10:46;;;;;;;;;;;22.70;36.90;;;;;;5054799;28;20389;-62
2024/03/10 02:13:17;;;;;;;;;;;22.70;36.90;;;;;;5054510;28;20021;-62
2024/03/10 02:15:44;;;;;;;;;;;22.70;36.80;;;;;;5054848;28;19971;-62
2024/03/10 02:18:12;;;;;;;;;;;22.70;36.90;;;;;;5054818;28;20362;-62
2024/03/10 02:20:40;;;;;;;;;;;22.70;36.90;;;;;;5054392;28;19929;-62
2024/03/10 02:23:07;;;;;;;;;;;22.70;36.90;;;;;;5054750;28;19925;-63
2024/03/10 02:25:39;;;;;;;;;;;22.70;36.90;;;;;;5054734;28;19925;-62
2024/03/10 02:28:10;;;;;;;;;;;22.70;36.90;;;;;;5054241;28;19931;-63
2024/03/10 02:30:43;;;;;;;;;;;22.70;36.90;;;;;;5054597;28;20336;-62
2024/03/10 02:47:12;;;;;;;;;;;22.70;36.90;;;;;;5054306;28;19931;-63
2024/03/10 02:49:40;;;;;;;;;;;22.60;36.90;;;;;;5054234;28;19924;-62
2024/03/10 02:52:08;;;;;;;;;;;22.60;37.00;;;;;;5054104;28;19925;-62
2024/03/10 02:54:38;;;;;;;;;;;22.70;37.00;;;;;;5052783;28;19925;-62
2024/03/10 02:57:06;;;;;;;;;;;22.60;37.00;;;;;;5053044;28;20335;-62
2024/03/10 02:59:33;;;;;;;;;;;22.70;37.10;;;;;;5053854;28;19931;-62
2024/03/10 03:02:00;;;;;;;;;;;22.60;37.00;;;;;;5053739;28;19931;-63
2024/03/10 03:04:28;;;;;;;;;;;22.60;37.00;;;;;;5052742;28;20366;-62
2024/03/10 03:06:55;;;;;;;;;;;22.60;37.00;;;;;;5053788;28;19932;-62
2024/03/10 03:09:23;;;;;;;;;;;22.60;37.00;;;;;;5054090;28;19960;-62
2024/03/10 03:11:50;;;;;;;;;;;22.60;37.10;;;;;;5053939;28;19939;-62
2024/03/10 03:14:18;;;;;;;;;;;22.60;37.00;;;;;;5054001;28;19928;-62
2024/03/10 03:16:45;;;;;;;;;;;22.60;37.10;;;;;;5053384;28;19925;-62
2024/03/10 03:19:13;;;;;;;;;;;22.60;37.00;;;;;;5053467;28;19975;-62
2024/03/10 03:21:40;;;;;;;;;;;22.60;37.00;;;;;;5053920;28;20058;-62
2024/03/10 03:24:08;;;;;;;;;;;22.60;37.00;;;;;;5053539;28;19925;-62
2024/03/10 03:26:36;;;;;;;;;;;22.60;37.00;;;;;;5053300;28;19963;-62
2024/03/10 03:29:04;;;;;;;;;;;22.60;37.00;;;;;;5053524;28;19925;-62
2024/03/10 03:31:31;;;;;;;;;;;22.60;37.00;;;;;;5053527;28;19955;-62
2024/03/10 03:33:58;;;;;;;;;;;22.60;37.00;;;;;;5053588;28;20309;-62
2024/03/10 03:36:25;;;;;;;;;;;22.60;37.00;;;;;;5053522;28;19929;-63
2024/03/10 03:38:52;;;;;;;;;;;22.70;37.10;;;;;;5053221;28;19998;-62
2024/03/10 03:41:19;;;;;;;;;;;22.70;37.10;;;;;;5053566;28;20007;-63
2024/03/10 03:43:47;;;;;;;;;;;22.60;37.10;;;;;;5053362;28;19987;-62
2024/03/10 03:46:14;;;;;;;;;;;22.60;37.10;;;;;;5053440;28;20327;-62
2024/03/10 03:48:41;;;;;;;;;;;22.60;37.00;;;;;;5053401;28;19924;-62
2024/03/10 03:51:08;;;;;;;;;;;22.60;37.10;;;;;;5053501;28;19925;-62
2024/03/10 03:53:35;;;;;;;;;;;22.60;37.10;;;;;;5052870;28;19932;-62
2024/03/10 03:56:02;;;;;;;;;;;22.60;37.10;;;;;;5053372;28;19959;-62
2024/03/10 03:58:29;;;;;;;;;;;22.60;37.10;;;;;;5052786;28;19979;-62
2024/03/10 04:00:57;;;;;;;;;;;22.60;37.10;;;;;;5053066;28;19991;-62
2024/03/10 04:03:24;;;;;;;;;;;22.60;37.10;;;;;;5053015;28;19925;-62
2024/03/10 04:05:52;;;;;;;;;;;22.60;37.20;;;;;;5053109;28;19932;-62
2024/03/10 04:08:19;;;;;;;;;;;22.60;37.80;;;;;;5052930;28;19925;-62
2024/03/10 04:10:47;;;;;;;;;;;22.60;37.20;;;;;;5053336;28;20326;-62
2024/03/10 04:13:14;;;;;;;;;;;22.60;37.30;;;;;;5052800;28;19925;-62
2024/03/10 04:15:40;;;;;;;;;;;22.60;37.30;;;;;;5054036;28;20374;-62
2024/03/10 04:18:08;;;;;;;;;;;22.60;37.30;;;;;;5057065;28;19933;-62
2024/03/10 04:20:35;;;;;;;;;;;22.60;37.20;;;;;;5057061;28;19925;-62
2024/03/10 04:23:05;;;;;;;;;;;22.60;37.30;;;;;;5056665;28;20330;-62
2024/03/10 04:25:33;;;;;;;;;;;22.60;37.30;;;;;;5056746;28;19929;-63
2024/03/10 04:28:01;;;;;;;;;;;22.60;37.20;;;;;;5056413;28;20293;-62
2024/03/10 04:30:28;;;;;;;;;;;22.60;37.20;;;;;;5056500;28;20374;-63
2024/03/10 04:32:55;;;;;;;;;;;22.60;37.20;;;;;;5056520;28;20443;-62
2024/03/10 04:35:24;;;;;;;;;;;22.60;37.20;;;;;;5056427;28;19924;-62
2024/03/10 04:37:53;;;;;;;;;;;22.60;37.20;;;;;;5056457;28;19925;-63
2024/03/10 04:40:20;;;;;;;;;;;22.60;37.20;;;;;;5055023;28;19975;-62
2024/03/10 04:42:47;;;;;;;;;;;22.60;37.00;;;;;;5056395;28;19971;-62
2024/03/10 04:45:14;;;;;;;;;;;22.60;36.90;;;;;;5056507;28;19925;-62
2024/03/10 04:47:41;;;;;;;;;;;22.70;36.90;;;;;;5056180;28;20465;-62
2024/03/10 04:50:08;;;;;;;;;;;22.70;36.90;;;;;;5056334;28;20378;-62
2024/03/10 04:52:37;;;;;;;;;;;22.70;36.80;;;;;;5056426;28;19925;-62
2024/03/10 04:55:05;;;;;;;;;;;22.70;36.80;;;;;;5055813;28;20439;-62
2024/03/10 04:57:33;;;;;;;;;;;22.70;36.80;;;;;;5056295;28;19925;-62
2024/03/10 05:00:00;;;;;;;;;;;22.70;36.80;;;;;;5056082;28;19925;-62
2024/03/10 05:02:27;;;;;;;;;;;22.70;36.80;;;;;;5055990;28;19971;-62
2024/03/10 05:04:54;;;;;;;;;;;22.70;36.70;;;;;;5055885;28;20007;-62
2024/03/10 05:07:22;;;;;;;;;;;22.60;36.70;;;;;;5056085;28;20015;-62
2024/03/10 05:09:49;;;;;;;;;;;22.70;36.70;;;;;;5056064;28;19925;-62
2024/03/10 05:12:16;;;;;;;;;;;22.70;36.70;;;;;;5056005;28;19925;-62
2024/03/10 05:14:43;;;;;;;;;;;22.70;36.70;;;;;;5055054;28;19924;-63
2024/03/10 05:17:11;;;;;;;;;;;22.60;36.70;;;;;;5037971;28;19939;-62
2024/03/10 05:19:42;;;;;;;;;;;22.60;36.70;;;;;;5055959;28;19925;-63
2024/03/10 05:22:09;;;;;;;;;;;22.60;36.70;;;;;;5055723;28;19971;-62
2024/03/10 05:24:43;;;;;;;;;;;22.60;36.70;;;;;;5055574;28;20019;-63
2024/03/10 05:27:10;;;;;;;;;;;22.60;36.70;;;;;;5054247;28;19931;-63
2024/03/10 05:29:37;;;;;;;;;;;22.70;36.70;;;;;;5054158;28;19931;-63
2024/03/10 05:32:04;;;;;;;;;;;22.70;36.70;;;;;;5054682;28;19924;-62
2024/03/10 05:34:32;;;;;;;;;;;22.70;36.70;;;;;;5052972;28;19925;-62
2024/03/10 05:36:59;;;;;;;;;;;22.70;36.70;;;;;;5054443;28;19953;-62
2024/03/10 05:39:27;;;;;;;;;;;22.70;36.70;;;;;;5054168;28;19931;-62
2024/03/10 05:41:54;;;;;;;;;;;22.70;36.70;;;;;;5055450;28;19925;-62
2024/03/10 05:44:21;;;;;;;;;;;22.70;36.60;;;;;;5055373;28;19925;-62
2024/03/10 05:46:48;;;;;;;;;;;22.70;36.60;;;;;;5054371;28;19925;-62
2024/03/10 05:49:15;;;;;;;;;;;22.80;36.60;;;;;;5055161;28;19925;-62
2024/03/10 05:51:42;;;;;;;;;;;22.80;36.60;;;;;;5055437;28;20337;-62
2024/03/10 05:54:09;;;;;;;;;;;22.80;36.50;;;;;;5055364;28;20016;-62
2024/03/10 05:56:36;;;;;;;;;;;22.80;36.50;;;;;;5054725;28;19925;-62
2024/03/10 05:59:03;;;;;;;;;;;22.80;36.50;;;;;;5054829;28;19929;-62
2024/03/10 06:01:30;;;;;;;;;;;22.90;36.50;;;;;;5055015;28;20366;-62
2024/03/10 06:03:57;;;;;;;;;;;22.90;36.50;;;;;;5054874;28;19924;-62
2024/03/10 06:06:24;;;;;;;;;;;22.90;36.40;;;;;;5055167;28;19925;-62
2024/03/10 06:08:51;;;;;;;;;;;22.90;36.40;;;;;;5054447;28;19975;-62
2024/03/10 06:11:18;;;;;;;;;;;23.00;36.40;;;;;;5054760;28;19924;-62
2024/03/10 06:13:46;;;;;;;;;;;23.00;36.40;;;;;;5054691;28;20606;-62
2024/03/10 06:16:12;;;;;;;;;;;23.00;36.40;;;;;;5054627;28;19971;-62
2024/03/10 06:27:00;;;;;;;;;;;23.00;36.30;;;;;;5054228;28;19928;-62
2024/03/10 06:29:28;;;;;;;;;;;23.10;36.40;;;;;;5054891;28;20326;-62
2024/03/10 06:31:56;;;;;;;;;;;23.10;36.30;;;;;;5054148;28;20397;-62
2024/03/10 06:34:24;;;;;;;;;;;23.10;36.30;;;;;;5054409;28;20019;-62
2024/03/10 06:36:51;;;;;;;;;;;23.10;36.20;;;;;;5054088;28;20382;-62
2024/03/10 06:39:21;;;;;;;;;;;23.20;36.20;;;;;;5054006;28;19925;-62
2024/03/10 06:41:48;;;;;;;;;;;23.20;36.20;;;;;;5054534;28;19970;-62
2024/03/10 06:44:17;;;;;;;;;;;23.20;36.20;;;;;;5054517;28;19929;-62
2024/03/10 06:46:44;;;;;;;;;;;23.20;36.10;;;;;;5053841;28;19924;-62
2024/03/10 06:49:11;;;;;;;;;;;23.30;36.20;;;;;;5036344;28;20378;-62
2024/03/10 06:51:38;;;;;;;;;;;23.20;36.10;;;;;;5054288;28;19951;-62
2024/03/10 06:54:05;;;;;;;;;;;23.30;36.10;;;;;;5054154;28;19952;-62
2024/03/10 06:56:32;;;;;;;;;;;23.30;36.10;;;;;;5053856;28;19924;-62
2024/03/10 06:58:59;;;;;;;;;;;23.30;36.00;;;;;;5054015;28;19931;-62
2024/03/10 07:01:26;;;;;;;;;;;23.40;36.10;;;;;;5054256;28;19925;-62
2024/03/10 07:03:53;;;;;;;;;;;23.40;36.00;;;;;;5053796;28;19935;-62
2024/03/10 07:06:21;;;;;;;;;;;23.40;36.00;;;;;;5053889;28;19931;-62
2024/03/10 07:08:49;;;;;;;;;;;23.40;36.00;;;;;;5053568;28;19925;-62
2024/03/10 07:11:16;;;;;;;;;;;23.50;35.90;;;;;;5054043;28;19932;-62
2024/03/10 07:13:43;;;;;;;;;;;23.50;35.90;;;;;;5053496;28;19975;-62
2024/03/10 07:16:10;;;;;;;;;;;23.60;35.80;;;;;;5036371;28;19924;-62
2024/03/10 07:18:37;;;;;;;;;;;23.60;35.80;;;;;;5053453;28;19928;-62
2024/03/10 07:21:05;;;;;;;;;;;23.60;35.70;;;;;;5053383;28;19925;-62
2024/03/10 07:23:32;;;;;;;;;;;23.70;35.70;;;;;;5052988;28;19931;-62
2024/03/10 07:26:00;;;;;;;;;;;23.70;35.60;;;;;;5053459;28;20390;-62
2024/03/10 07:28:27;;;;;;;;;;;23.70;35.50;;;;;;5053061;28;19924;-62
2024/03/10 07:30:54;;;;;;;;;;;23.80;35.50;;;;;;5053649;28;19935;-63
2024/03/10 07:33:21;;;;;;;;;;;23.80;35.40;;;;;;5053233;28;19925;-62
2024/03/10 07:35:48;;;;;;;;;;;23.90;35.40;;;;;;5053329;28;19968;-62
2024/03/10 07:38:15;;;;;;;;;;;23.90;35.40;;;;;;5053215;28;19924;-62
2024/03/10 07:40:42;;;;;;;;;;;23.90;35.30;;;;;;5053255;28;19925;-62
2024/03/10 07:43:09;;;;;;;;;;;24.00;35.30;;;;;;5035783;28;19968;-62
2024/03/10 07:45:36;;;;;;;;;;;24.00;35.20;;;;;;5053082;28;20367;-62
2024/03/10 07:48:05;;;;;;;;;;;24.10;35.20;;;;;;5035517;28;19971;-62
2024/03/10 07:50:35;;;;;;;;;;;24.10;35.20;;;;;;5056251;28;19967;-62
2024/03/10 07:53:02;;;;;;;;;;;24.20;35.10;;;;;;5059605;28;19932;-62
2024/03/10 07:55:30;;;;;;;;;;;24.20;35.10;;;;;;5060017;28;20011;-62
2024/03/10 07:57:58;;;;;;;;;;;24.30;35.00;;;;;;5059744;28;19931;-62
2024/03/10 08:00:26;;;;;;;;;;;24.30;34.90;;;;;;5059860;28;20016;-62
2024/03/10 08:02:56;;;;;;;;;;;24.30;34.90;;;;;;5059912;28;19924;-62
2024/03/10 08:05:23;;;;;;;;;;;24.40;34.80;;;;;;5059616;28;19929;-62
2024/03/10 08:07:51;;;;;;;;;;;24.40;34.70;;;;;;5059420;28;19924;-62
2024/03/10 08:10:18;;;;;;;;;;;24.40;34.70;;;;;;5059686;28;19968;-62
2024/03/10 08:12:47;;;;;;;;;;;24.50;34.70;;;;;;5059467;28;20378;-62
2024/03/10 08:15:16;;;;;;;;;;;24.50;34.60;;;;;;5058854;28;19971;-62
2024/03/10 08:17:44;;;;;;;;;;;24.50;34.60;;;;;;5059684;28;19924;-62
2024/03/10 08:20:13;;;;;;;;;;;24.60;34.60;;;;;;5059572;28;19931;-62
2024/03/10 08:22:42;;;;;;;;;;;24.60;34.60;;;;;;5059629;28;20400;-62
2024/03/10 08:25:10;;;;;;;;;;;24.60;34.50;;;;;;5059431;28;19924;-62
2024/03/10 08:27:38;;;;;;;;;;;24.70;34.50;;;;;;5059381;28;19925;-62
2024/03/10 08:30:09;;;;;;;;;;;24.70;34.50;;;;;;5041860;28;19930;-63
2024/03/10 08:32:36;;;;;;;;;;;24.70;34.50;;;;;;5059286;28;20316;-62
2024/03/10 08:35:10;;;;;;;;;;;24.70;34.40;;;;;;5059809;28;19967;-62
2024/03/10 08:37:44;;;;;;;;;;;24.70;34.40;;;;;;5058578;28;19925;-62
2024/03/10 08:40:12;;;;;;;;;;;24.70;34.40;;;;;;5059311;28;20298;-62
2024/03/10 08:42:43;;;;;;;;;;;24.70;34.40;;;;;;5059748;28;19925;-62
2024/03/10 08:45:11;;;;;;;;;;;24.80;34.40;;;;;;5059281;28;19964;-62
2024/03/10 08:47:42;;;;;;;;;;;24.80;34.40;;;;;;5058276;28;19925;-62
2024/03/10 08:50:10;;;;;;;;;;;24.80;34.30;;;;;;5059711;28;19924;-62
2024/03/10 08:52:38;;;;;;;;;;;24.90;34.30;;;;;;5058361;28;20453;-62
2024/03/10 08:55:07;;;;;;;;;;;24.90;34.20;;;;;;5059080;28;19929;-62
2024/03/10 08:57:35;;;;;;;;;;;24.90;34.20;;;;;;5059468;28;20298;-62
2024/03/10 09:00:03;;;;;;;;;;;24.90;34.10;;;;;;5059075;28;19967;-62
2024/03/10 09:02:30;;;;;;;;;;;25.00;34.10;;;;;;5056987;28;20011;-62
2024/03/10 09:04:58;;;;;;;;;;;25.00;34.10;;;;;;5056314;28;19932;-62
2024/03/10 09:07:28;;;;;;;;;;;25.10;34.00;;;;;;5056065;28;20475;-62
2024/03/10 09:09:57;;;;;;;;;;;25.10;34.00;;;;;;5055971;28;19924;-62
2024/03/10 09:12:25;;;;;;;;;;;25.10;33.90;;;;;;5055984;28;19932;-62
2024/03/10 09:14:52;;;;;;;;;;;25.10;33.90;;;;;;5055835;28;19925;-62
2024/03/10 09:17:19;;;;;;;;;;;25.10;33.90;;;;;;5055991;28;19924;-62
2024/03/10 09:19:46;;;;;;;;;;;25.20;34.20;;;;;;5055706;28;19968;-62
2024/03/10 09:22:15;;;;;;;;;;;25.20;33.90;;;;;;5056088;28;19924;-63
2024/03/10 09:24:48;;;;;;;;;;;25.20;33.90;;;;;;5055765;28;20375;-62
2024/03/10 09:27:18;;;;;;;;;;;25.20;33.80;;;;;;5055952;28;20023;-65
2024/03/10 09:29:47;;;;;;;;;;;25.30;33.90;;;;;;5055833;28;19947;-65
2024/03/10 09:32:15;;;;;;;;;;;25.30;33.80;;;;;;5055348;28;19971;-63
2024/03/10 09:34:43;;;;;;;;;;;25.30;33.80;;;;;;5055783;28;19932;-62
2024/03/10 09:37:10;;;;;;;;;;;25.30;33.80;;;;;;5055443;28;19924;-62
2024/03/10 09:39:37;;;;;;;;;;;25.40;33.80;;;;;;5055156;28;19968;-64
2024/03/10 09:42:03;;;;;;;;;;;25.30;33.70;;;;;;5055363;28;20393;-63
2024/03/10 09:44:32;;;;;;;;;;;25.30;33.70;;;;;;5054074;28;19925;-63
2024/03/10 09:47:00;;;;;;;;;;;25.30;33.70;;;;;;5055319;28;19947;-63
2024/03/10 09:49:28;;;;;;;;;;;25.30;33.70;;;;;;5055574;28;19924;-62
2024/03/10 09:51:56;;;;;;;;;;;25.40;33.70;;;;;;5055421;28;19925;-62
2024/03/10 09:54:25;;;;;;;;;;;25.40;33.70;;;;;;5055186;28;19924;-62
2024/03/10 09:56:52;;;;;;;;;;;25.40;33.70;;;;;;5054757;28;19932;-62
2024/03/10 09:59:39;;;;;;;;;;;25.40;33.60;;;;;;5054867;28;19948;-62
2024/03/10 10:02:09;;;;;;;;;;;25.40;33.50;;;;;;5054895;28;19929;-62
2024/03/10 10:04:36;;;;;;;;;;;25.50;33.60;;;;;;5054875;28;19929;-62
2024/03/10 10:07:07;;;;;;;;;;;25.50;33.50;;;;;;5054604;28;19939;-62
2024/03/10 10:09:36;;;;;;;;;;;25.50;33.50;;;;;;5054673;28;19924;-63
2024/03/10 10:12:03;;;;;;;;;;;25.60;33.60;;;;;;5054638;28;20396;-62
2024/03/10 10:14:30;;;;;;;;;;;25.60;33.60;;;;;;5054117;28;19925;-62
2024/03/10 10:16:58;;;;;;;;;;;25.60;33.60;;;;;;5054749;28;19925;-62
2024/03/10 10:19:26;;;;;;;;;;;25.60;33.60;;;;;;5054812;28;19928;-63
2024/03/10 10:21:53;;;;;;;;;;;25.60;33.60;;;;;;5054798;28;20293;-62
2024/03/10 10:24:21;;;;;;;;;;;25.60;33.60;;;;;;5054833;28;19961;-62
2024/03/10 10:27:04;;;;;;;;;;;25.60;33.60;;;;;;5053815;28;19931;-62
2024/03/10 10:29:50;;;;;;;;;;;25.60;33.60;;;;;;5054728;28;19928;-63
2024/03/10 10:32:21;;;;;;;;;;;25.60;33.60;;;;;;5054455;28;20024;-62
2024/03/10 10:34:52;;;;;;;;;;;25.60;33.70;;;;;;5054638;28;19932;-62
2024/03/10 10:37:20;;;;;;;;;;;25.60;33.60;;;;;;5054134;28;19924;-62
2024/03/10 10:39:48;;;;;;;;;;;25.60;33.50;;;;;;5054181;28;19924;-62
2024/03/10 10:42:16;;;;;;;;;;;25.70;33.60;;;;;;5054402;28;19979;-62
2024/03/10 10:45:01;;;;;;;;;;;25.70;33.50;;;;;;5053865;28;19971;-62
2024/03/10 10:47:29;;;;;;;;;;;25.70;33.50;;;;;;5053766;28;19925;-63
2024/03/10 10:49:56;;;;;;;;;;;25.70;33.50;;;;;;5054045;28;19976;-62
2024/03/10 10:52:23;;;;;;;;;;;25.70;33.50;;;;;;5054063;28;20201;-62
2024/03/10 10:54:50;;;;;;;;;;;25.70;33.50;;;;;;5054021;28;19951;-62
2024/03/10 10:57:18;;;;;;;;;;;25.70;33.40;;;;;;5054069;28;19972;-62
2024/03/10 10:59:47;;;;;;;;;;;25.70;33.50;;;;;;5054142;28;19924;-62
2024/03/10 11:02:16;;;;;;;;;;;25.70;33.40;;;;;;5054126;28;20039;-62
2024/03/10 11:04:43;;;;;;;;;;;25.70;33.40;;;;;;5053533;28;19979;-62
2024/03/10 11:07:13;;;;;;;;;;;25.80;33.40;;;;;;5053435;28;20351;-62
2024/03/10 11:09:40;;;;;;;;;;;25.80;33.40;;;;;;5053753;28;19931;-62
2024/03/10 11:12:21;;;;;;;;;;;25.80;33.40;;;;;;5053414;28;19924;-62
2024/03/10 11:14:49;;;;;;;;;;;25.80;33.40;;;;;;5053897;28;19924;-62
2024/03/10 11:17:17;;;;;;;;;;;25.80;33.40;;;;;;5053415;28;19928;-62
2024/03/10 11:19:48;;;;;;;;;;;25.80;33.40;;;;;;5052231;28;19932;-62
2024/03/10 11:22:23;;;;;;;;;;;25.80;33.40;;;;;;5052430;28;19929;-62
2024/03/10 11:25:11;;;;;;;;;;;25.80;33.40;;;;;;5052758;28;19924;-62
2024/03/10 11:27:42;;;;;;;;;;;25.80;33.40;;;;;;5051879;28;19944;-63
2024/03/10 11:30:29;;;;;;;;;;;25.80;33.40;;;;;;5053323;28;19932;-62
2024/03/10 11:33:05;;;;;;;;;;;25.80;33.40;;;;;;5053092;28;20023;-62
2024/03/10 11:35:34;;;;;;;;;;;25.90;33.40;;;;;;5053373;28;20272;-62
2024/03/10 11:38:04;;;;;;;;;;;25.80;33.30;;;;;;5053281;28;20290;-62
2024/03/10 11:40:31;;;;;;;;;;;25.80;33.30;;;;;;5053357;28;19964;-62
2024/03/10 11:43:01;;;;;;;;;;;25.90;33.40;;;;;;5053498;28;19971;-62
2024/03/10 11:45:31;;;;;;;;;;;25.80;33.30;;;;;;5053053;28;19932;-62
2024/03/10 11:47:58;;;;;;;;;;;25.90;33.40;;;;;;5053296;28;20347;-62
2024/03/10 11:50:26;;;;;;;;;;;25.90;33.40;;;;;;5053170;28;20307;-62
2024/03/10 11:52:53;;;;;;;;;;;26.00;33.40;;;;;;5053176;28;19924;-62
2024/03/10 11:55:21;;;;;;;;;;;25.90;33.30;;;;;;5053092;28;19971;-62
2024/03/10 11:57:52;;;;;;;;;;;26.00;33.40;;;;;;5052914;28;20028;-62
2024/03/10 12:00:23;;;;;;;;;;;26.00;33.40;;;;;;5053284;28;20296;-62
2024/03/10 12:02:54;;;;;;;;;;;26.00;33.40;;;;;;5053354;28;19975;-62
2024/03/10 12:05:22;;;;;;;;;;;26.00;33.30;;;;;;5053053;28;19939;-62
2024/03/10 12:07:57;;;;;;;;;;;26.00;33.30;;;;;;5052968;28;20006;-62
2024/03/10 12:10:27;;;;;;;;;;;26.00;33.30;;;;;;5035440;28;20401;-62
2024/03/10 12:12:55;;;;;;;;;;;26.10;33.90;;;;;;5052728;28;19925;-62
2024/03/10 12:15:24;;;;;;;;;;;26.10;33.30;;;;;;5053168;28;19979;-62
2024/03/10 12:17:51;;;;;;;;;;;26.00;33.30;;;;;;5052704;28;19979;-62
2024/03/10 12:20:19;;;;;;;;;;;26.00;33.30;;;;;;5051987;28;19931;-62
2024/03/10 12:22:47;;;;;;;;;;;26.00;33.30;;;;;;5052818;28;19929;-62
2024/03/10 12:25:14;;;;;;;;;;;26.00;33.40;;;;;;5052896;28;20031;-62
2024/03/10 12:27:41;;;;;;;;;;;26.00;33.40;;;;;;5052743;28;19952;-62
2024/03/10 12:30:09;;;;;;;;;;;26.00;33.40;;;;;;5035360;28;20362;-62
2024/03/10 12:32:48;;;;;;;;;;;25.90;33.40;;;;;;5052973;28;20026;-62
2024/03/10 12:35:16;;;;;;;;;;;25.90;33.40;;;;;;5052796;28;20447;-62
2024/03/10 12:37:44;;;;;;;;;;;25.90;33.50;;;;;;5055523;28;19924;-63
2024/03/10 12:40:14;;;;;;;;;;;25.90;33.50;;;;;;5056329;28;19948;-62
2024/03/10 12:42:43;;;;;;;;;;;25.80;33.50;;;;;;5056634;28;19925;-62
2024/03/10 12:45:10;;;;;;;;;;;25.80;33.60;;;;;;5056627;28;20365;-62
2024/03/10 12:47:37;;;;;;;;;;;25.80;33.60;;;;;;5056010;28;19983;-62
2024/03/10 12:50:07;;;;;;;;;;;25.70;34.10;;;;;;5056304;28;19932;-62
2024/03/10 12:52:35;;;;;;;;;;;25.70;33.60;;;;;;5056295;28;19926;-62
2024/03/10 12:55:07;;;;;;;;;;;25.70;33.60;;;;;;5056477;28;20020;-62
2024/03/10 12:57:36;;;;;;;;;;;25.70;33.70;;;;;;5056155;28;19932;-62
2024/03/10 13:00:15;;;;;;;;;;;25.70;33.70;;;;;;5056324;28;19932;-62
2024/03/10 13:02:44;;;;;;;;;;;25.70;33.80;;;;;;5056352;28;20344;-62
2024/03/10 13:05:16;;;;;;;;;;;25.70;33.80;;;;;;5055937;28;19970;-62
2024/03/10 13:07:42;;;;;;;;;;;25.70;33.80;;;;;;5055806;28;19951;-62
2024/03/10 13:10:10;;;;;;;;;;;25.70;33.80;;;;;;5056137;28;19986;-62
2024/03/10 13:12:37;;;;;;;;;;;25.70;33.80;;;;;;5055797;28;19929;-62
2024/03/10 13:15:05;;;;;;;;;;;25.70;33.80;;;;;;5056255;28;19925;-62
2024/03/10 13:17:33;;;;;;;;;;;25.70;33.80;;;;;;5055823;28;19994;-62
2024/03/10 13:20:00;;;;;;;;;;;25.70;33.90;;;;;;5055978;28;19925;-62
2024/03/10 13:22:27;;;;;;;;;;;25.60;33.90;;;;;;5055953;28;19929;-62
2024/03/10 13:24:54;;;;;;;;;;;25.70;34.00;;;;;;5055885;28;19996;-62
2024/03/10 13:27:21;;;;;;;;;;;25.70;34.00;;;;;;5055670;28;19978;-62
2024/03/10 13:29:48;;;;;;;;;;;25.70;34.10;;;;;;5055853;28;19932;-62
2024/03/10 13:32:15;;;;;;;;;;;25.70;34.10;;;;;;5054921;28;20321;-62
2024/03/10 13:34:42;;;;;;;;;;;25.70;34.10;;;;;;5055582;28;20457;-62
2024/03/10 13:37:09;;;;;;;;;;;25.70;34.20;;;;;;5055271;28;19982;-62
2024/03/10 13:39:36;;;;;;;;;;;25.70;34.30;;;;;;5055210;28;19925;-62
2024/03/10 13:42:03;;;;;;;;;;;25.70;34.40;;;;;;5055692;28;19932;-62
2024/03/10 13:44:30;;;;;;;;;;;25.60;34.30;;;;;;5055652;28;19925;-62
2024/03/10 13:46:57;;;;;;;;;;;25.60;34.40;;;;;;5054943;28;19925;-62
2024/03/10 13:49:24;;;;;;;;;;;25.60;35.00;;;;;;5054225;28;19925;-62
2024/03/10 13:51:52;;;;;;;;;;;25.60;34.40;;;;;;5055006;28;19979;-61
2024/03/10 13:54:18;;;;;;;;;;;25.60;34.40;;;;;;5055432;28;19952;-62
2024/03/10 13:56:48;;;;;;;;;;;25.60;34.40;;;;;;5055431;28;19960;-61
2024/03/10 13:59:15;;;;;;;;;;;25.60;34.40;;;;;;5054876;28;20016;-62
2024/03/10 14:01:42;;;;;;;;;;;25.60;34.50;;;;;;5053853;28;20421;-62
2024/03/10 14:04:11;;;;;;;;;;;25.60;34.50;;;;;;5054954;28;19931;-61
2024/03/10 14:06:37;;;;;;;;;;;25.50;34.50;;;;;;5054704;28;20449;-62
2024/03/10 14:09:04;;;;;;;;;;;25.50;34.60;;;;;;5054963;28;19932;-62
2024/03/10 14:11:31;;;;;;;;;;;25.40;34.60;;;;;;5054649;28;20288;-62
2024/03/10 14:13:58;;;;;;;;;;;25.40;34.70;;;;;;5054626;28;19968;-61
2024/03/10 14:16:26;;;;;;;;;;;25.40;34.80;;;;;;5054820;28;19925;-62
2024/03/10 14:18:53;;;;;;;;;;;25.40;34.80;;;;;;5054418;28;19932;-62
2024/03/10 14:21:20;;;;;;;;;;;25.30;34.80;;;;;;5054587;28;20020;-62
2024/03/10 14:23:48;;;;;;;;;;;25.30;34.90;;;;;;5054717;28;20271;-62
2024/03/10 14:26:17;;;;;;;;;;;25.20;34.90;;;;;;5054833;28;19925;-62
2024/03/10 14:28:44;;;;;;;;;;;25.20;34.90;;;;;;5054262;28;19925;-62
2024/03/10 14:31:11;;;;;;;;;;;25.20;35.00;;;;;;5054318;28;19925;-62
2024/03/10 14:33:39;;;;;;;;;;;25.20;35.00;;;;;;5036875;28;19931;-62
2024/03/10 14:36:08;;;;;;;;;;;25.20;35.00;;;;;;5054350;28;20424;-62
2024/03/10 14:38:35;;;;;;;;;;;25.20;35.00;;;;;;5054046;28;19925;-62
2024/03/10 14:41:07;;;;;;;;;;;25.20;35.10;;;;;;5054209;28;19932;-63
2024/03/10 14:43:34;;;;;;;;;;;25.20;35.10;;;;;;5054038;28;19979;-62